Time;durP1;ratioP1;P1;durP2;ratioP2;P2;SDS_P1;SDS_P2;PMS_P1;PMS_P2;Temp;Humidity;BMP_temperature;BMP_pressure;BME280_temperature;BME280_humidity;BME280_pressure;Samples;Min_cycle;Max_cycle;Signal;HPM_P1;HPM_P2
2024/01/08 00:01:26;;;;;;;21.60;10.20;;;;;;;-10.39;76.18;100623.25;216856;1264;141151;-71
2024/01/08 00:06:32;;;;;;;19.30;10.90;;;;;;;-10.36;76.19;100633.56;217059;1264;140515;-71
2024/01/08 00:11:36;;;;;;;20.50;10.10;;;;;;;-10.35;76.18;100638.86;216885;1267;140811;-68
2024/01/08 00:16:39;;;;;;;22.40;11.30;;;;;;;-10.37;76.05;100643.41;216561;1264;140653;-69
2024/01/08 00:21:42;;;;;;;20.80;10.10;;;;;;;-10.31;76.55;100645.89;216290;1267;151778;-69
2024/01/08 00:26:45;;;;;;;21.20;10.70;;;;;;;-10.29;76.09;100646.42;216433;1267;140924;-69
2024/01/08 00:31:48;;;;;;;15.60;9.00;;;;;;;-10.33;76.18;100647.15;217003;1264;140414;-72
2024/01/08 00:36:50;;;;;;;11.60;8.40;;;;;;;-10.37;75.75;100643.77;216460;1262;140959;-68
2024/01/08 00:41:53;;;;;;;19.00;15.30;;;;;;;-10.37;76.04;100648.74;217336;1263;141366;-69
2024/01/08 00:46:56;;;;;;;22.70;11.00;;;;;;;-10.32;76.15;100649.86;216942;1264;143272;-66
2024/01/08 00:51:59;;;;;;;23.70;11.70;;;;;;;-10.32;75.98;100647.64;217157;1266;140545;-70
2024/01/08 00:57:03;;;;;;;22.90;10.00;;;;;;;-10.33;75.90;100656.09;216829;1264;141680;-69
2024/01/08 01:02:06;;;;;;;16.30;9.20;;;;;;;-10.34;75.82;100660.12;216697;1264;140748;-68
2024/01/08 01:07:09;;;;;;;19.20;9.60;;;;;;;-10.33;75.73;100665.87;218199;1267;140356;-69
2024/01/08 01:12:13;;;;;;;27.10;11.60;;;;;;;-10.31;75.81;100668.19;217649;1264;140596;-66
2024/01/08 01:17:15;;;;;;;16.60;7.60;;;;;;;-10.30;75.77;100669.84;217857;1267;141248;-66
2024/01/08 01:22:19;;;;;;;20.60;9.70;;;;;;;-10.27;75.81;100674.50;216113;1264;140441;-69
2024/01/08 01:27:22;;;;;;;15.90;8.50;;;;;;;-10.24;75.60;100672.32;216445;1267;140064;-70
2024/01/08 01:32:24;;;;;;;19.60;11.30;;;;;;;-10.25;75.85;100674.91;216108;1264;140657;-67
2024/01/08 01:37:28;;;;;;;27.20;11.40;;;;;;;-10.24;75.77;100677.96;217089;1267;141454;-69
2024/01/08 01:42:32;;;;;;;18.00;10.10;;;;;;;-10.20;75.90;100685.35;216144;1264;140964;-72
2024/01/08 01:47:36;;;;;;;20.90;8.10;;;;;;;-10.15;75.96;100681.11;215948;1267;141465;-68
2024/01/08 01:52:40;;;;;;;19.30;9.60;;;;;;;-10.13;75.50;100680.16;216688;1267;140803;-69
2024/01/08 01:57:46;;;;;;;19.80;10.30;;;;;;;-10.14;75.60;100684.81;216592;1268;140797;-67
2024/01/08 02:02:49;;;;;;;23.20;9.80;;;;;;;-10.11;75.83;100685.55;216558;1264;140810;-68
2024/01/08 02:07:53;;;;;;;16.90;8.30;;;;;;;-10.06;75.84;100690.02;215894;1264;140761;-69
2024/01/08 02:13:00;;;;;;;20.30;11.80;;;;;;;-10.05;75.74;100692.73;215855;1264;140146;-68
2024/01/08 02:18:03;;;;;;;15.90;9.30;;;;;;;-10.02;75.68;100695.52;216903;1267;142423;-70
2024/01/08 02:23:06;;;;;;;16.80;9.30;;;;;;;-9.97;75.73;100698.52;216579;1268;142284;-67
2024/01/08 02:28:09;;;;;;;19.20;9.20;;;;;;;-9.87;75.81;100700.91;216086;1264;141116;-68
2024/01/08 02:33:12;;;;;;;19.80;9.20;;;;;;;-9.77;75.86;100710.19;216739;1264;140741;-73
2024/01/08 02:38:19;;;;;;;21.70;7.80;;;;;;;-9.69;75.88;100713.36;216011;1267;140029;-72
2024/01/08 02:43:23;;;;;;;21.20;10.50;;;;;;;-9.71;75.67;100725.33;216021;1269;140151;-66
2024/01/08 02:48:26;;;;;;;24.70;11.20;;;;;;;-9.76;75.81;100733.21;216302;1264;141290;-70
2024/01/08 02:53:29;;;;;;;13.70;7.20;;;;;;;-9.82;75.71;100733.88;217304;1264;140843;-66
2024/01/08 02:58:32;;;;;;;22.40;11.10;;;;;;;-9.89;75.66;100742.95;216992;1264;140002;-73
2024/01/08 03:03:35;;;;;;;21.80;11.20;;;;;;;-9.87;75.99;100745.44;216455;1267;140594;-66
2024/01/08 03:08:38;;;;;;;24.90;9.60;;;;;;;-9.83;76.06;100749.73;218300;1264;142197;-68
2024/01/08 03:13:41;;;;;;;12.40;7.60;;;;;;;-9.82;75.85;100743.52;217221;1264;141634;-67
2024/01/08 03:18:46;;;;;;;17.60;9.80;;;;;;;-9.84;75.77;100759.27;216784;1263;141982;-66
2024/01/08 03:23:49;;;;;;;21.70;10.30;;;;;;;-9.91;75.57;100768.88;216056;1264;140075;-69
2024/01/08 03:28:52;;;;;;;12.60;8.50;;;;;;;-9.99;75.83;100780.49;217806;1264;141114;-69
2024/01/08 03:33:54;;;;;;;17.60;8.80;;;;;;;-10.07;75.60;100787.42;218458;1264;140725;-68
2024/01/08 03:38:57;;;;;;;22.60;9.40;;;;;;;-10.17;75.51;100789.48;216115;1267;141507;-68
2024/01/08 03:44:01;;;;;;;9.60;7.30;;;;;;;-10.16;75.69;100794.62;217063;1264;140451;-69
2024/01/08 03:49:07;;;;;;;19.80;9.10;;;;;;;-10.21;75.63;100791.26;216191;1264;141116;-68
2024/01/08 03:54:11;;;;;;;14.80;9.10;;;;;;;-10.25;75.28;100787.85;216792;1264;141338;-68
2024/01/08 03:59:15;;;;;;;19.80;11.70;;;;;;;-10.31;75.52;100790.38;215977;1264;140361;-66
2024/01/08 04:04:18;;;;;;;18.40;9.70;;;;;;;-10.37;75.44;100797.89;216481;1264;140541;-67
2024/01/08 04:09:22;;;;;;;17.90;8.00;;;;;;;-10.48;75.35;100800.02;216388;1264;140288;-67
2024/01/08 04:14:25;;;;;;;15.40;9.00;;;;;;;-10.58;75.46;100804.95;216225;1267;140684;-66
2024/01/08 04:19:29;;;;;;;16.20;9.90;;;;;;;-10.68;75.34;100812.30;216695;1264;140828;-70
2024/01/08 04:24:33;;;;;;;21.50;12.20;;;;;;;-10.71;75.50;100826.23;215820;1264;141555;-71
2024/01/08 04:29:36;;;;;;;19.60;10.40;;;;;;;-10.71;75.65;100834.82;215939;1267;248381;-70
2024/01/08 04:34:39;;;;;;;18.80;8.50;;;;;;;-10.76;75.39;100840.72;215836;1264;141168;-72
2024/01/08 04:39:42;;;;;;;19.70;10.00;;;;;;;-10.83;75.75;100851.66;215909;1267;141004;-69
2024/01/08 04:44:46;;;;;;;24.50;12.10;;;;;;;-10.90;75.58;100847.84;215861;1264;141088;-68
2024/01/08 04:49:49;;;;;;;22.40;12.60;;;;;;;-10.93;75.24;100844.91;215848;1264;140461;-69
2024/01/08 04:54:53;;;;;;;22.10;11.60;;;;;;;-11.00;75.49;100856.08;216436;1264;141362;-68
2024/01/08 04:59:56;;;;;;;13.50;8.70;;;;;;;-11.01;75.79;100859.71;219158;1264;141157;-69
2024/01/08 05:04:58;;;;;;;21.40;11.70;;;;;;;-11.04;75.46;100869.32;218936;1265;141040;-69
2024/01/08 05:10:01;;;;;;;17.00;9.80;;;;;;;-11.07;75.57;100877.88;218640;1264;142630;-69
2024/01/08 05:15:05;;;;;;;21.40;11.40;;;;;;;-11.07;75.42;100879.91;218958;1264;141025;-68
2024/01/08 05:20:10;;;;;;;24.10;12.20;;;;;;;-11.02;75.48;100886.39;217824;1264;141436;-68
2024/01/08 05:25:13;;;;;;;17.10;9.10;;;;;;;-11.00;75.30;100884.75;217379;1264;141351;-68
2024/01/08 05:30:16;;;;;;;16.00;8.80;;;;;;;-11.02;75.33;100894.63;215914;1264;140420;-67
2024/01/08 05:35:19;;;;;;;21.70;9.80;;;;;;;-11.11;75.22;100895.54;216942;1263;142977;-67
2024/01/08 05:40:22;;;;;;;16.00;9.10;;;;;;;-11.12;75.37;100908.11;216116;1264;142611;-69
2024/01/08 05:45:30;;;;;;;19.30;10.70;;;;;;;-11.14;75.33;100911.14;217046;1264;141503;-69
2024/01/08 05:50:33;;;;;;;17.20;9.60;;;;;;;-11.17;75.67;100913.30;217488;1264;140493;-70
2024/01/08 05:55:37;;;;;;;22.60;12.00;;;;;;;-11.18;75.63;100916.27;217740;1264;140423;-69
2024/01/08 06:00:40;;;;;;;18.50;10.50;;;;;;;-11.21;75.25;100922.25;218077;1264;141384;-68
2024/01/08 06:05:43;;;;;;;16.00;9.60;;;;;;;-11.23;75.49;100926.94;215977;1264;140877;-69
2024/01/08 06:10:48;;;;;;;18.40;12.20;;;;;;;-11.26;75.34;100924.67;216190;1263;140922;-68
2024/01/08 06:15:52;;;;;;;16.80;9.40;;;;;;;-11.31;75.23;100932.97;215831;1264;141846;-69
2024/01/08 06:20:56;;;;;;;17.00;9.80;;;;;;;-11.38;75.24;100939.80;216256;1267;140432;-69
2024/01/08 06:26:02;;;;;;;22.00;11.00;;;;;;;-11.43;75.80;100946.02;216030;1264;140616;-69
2024/01/08 06:31:06;;;;;;;18.60;11.20;;;;;;;-11.54;75.53;100951.62;215829;1264;140679;-68
2024/01/08 06:36:15;;;;;;;20.30;11.20;;;;;;;-11.60;75.59;100957.17;216221;1264;141007;-69
2024/01/08 06:41:19;;;;;;;24.80;9.60;;;;;;;-11.61;75.63;100963.62;216940;1264;141130;-69
2024/01/08 06:46:23;;;;;;;22.00;9.60;;;;;;;-11.63;75.84;100964.20;217692;1264;141265;-69
2024/01/08 06:51:26;;;;;;;24.00;13.10;;;;;;;-11.64;75.56;100966.82;217092;1264;140918;-69
2024/01/08 06:56:29;;;;;;;16.60;10.10;;;;;;;-11.66;75.63;100975.31;218263;1264;140511;-68
2024/01/08 07:01:32;;;;;;;12.00;7.10;;;;;;;-11.70;75.76;100981.14;219002;1264;140625;-69
2024/01/08 07:06:35;;;;;;;24.70;10.60;;;;;;;-11.70;75.57;100993.33;219004;1264;141240;-69
2024/01/08 07:11:43;;;;;;;;;;;;;;;-11.68;75.63;100994.23;219081;1264;141823;-68
2024/01/08 07:16:46;;;;;;;16.20;9.70;;;;;;;-11.64;75.54;101004.06;217155;1267;127637;-68
2024/01/08 07:21:50;;;;;;;17.40;10.10;;;;;;;-11.64;75.43;101014.83;218874;1264;140951;-68
2024/01/08 07:26:54;;;;;;;25.60;11.40;;;;;;;-11.62;75.66;101019.75;217769;1263;140978;-68
2024/01/08 07:31:58;;;;;;;23.00;11.90;;;;;;;-11.62;75.45;101027.60;216222;1264;140959;-68
2024/01/08 07:37:01;;;;;;;19.30;10.90;;;;;;;-11.64;75.31;101024.78;216044;1264;144490;-68
2024/01/08 07:42:06;;;;;;;11.50;7.10;;;;;;;-11.63;75.54;101038.11;217168;1264;140457;-67
2024/01/08 07:47:10;;;;;;;17.10;11.20;;;;;;;-11.63;75.37;101049.27;215910;1264;141303;-68
2024/01/08 07:52:14;;;;;;;21.00;12.00;;;;;;;-11.62;75.61;101059.36;216057;1265;143644;-67
2024/01/08 07:57:22;;;;;;;19.00;7.70;;;;;;;-11.66;75.01;101068.09;218062;1264;140679;-68
2024/01/08 08:02:25;;;;;;;22.80;10.40;;;;;;;-11.67;75.42;101073.11;215915;1264;140959;-67
2024/01/08 08:07:29;;;;;;;26.80;10.90;;;;;;;-11.58;75.52;101077.35;215999;1264;141545;-67
2024/01/08 08:12:33;;;;;;;20.40;10.60;;;;;;;-11.50;75.34;101088.16;216653;1264;141830;-68
2024/01/08 08:17:42;;;;;;;22.50;10.90;;;;;;;-11.39;75.27;101095.78;215904;1263;141057;-67
2024/01/08 08:22:46;;;;;;;18.60;9.30;;;;;;;-11.33;75.27;101105.66;215933;1264;141139;-67
2024/01/08 08:27:54;;;;;;;11.20;8.80;;;;;;;-11.35;75.03;101111.10;216870;1264;141252;-67
2024/01/08 08:32:58;;;;;;;15.60;8.90;;;;;;;-11.42;75.12;101110.84;216299;1264;141696;-68
2024/01/08 08:38:03;;;;;;;12.10;8.20;;;;;;;-11.42;74.74;101113.56;217072;1264;140689;-66
2024/01/08 08:43:10;;;;;;;19.90;12.10;;;;;;;-11.37;74.79;101115.64;216042;1267;143056;-67
2024/01/08 08:48:14;;;;;;;16.20;9.50;;;;;;;-11.27;75.15;101133.05;217130;1264;141083;-68
2024/01/08 08:53:19;;;;;;;20.00;10.10;;;;;;;-11.16;75.10;101144.09;217146;1264;141582;-67
2024/01/08 08:58:23;;;;;;;11.40;6.70;;;;;;;-11.05;74.86;101163.91;218979;1263;141707;-67
2024/01/08 09:03:26;;;;;;;24.10;12.60;;;;;;;-11.02;74.48;101163.25;219053;1264;141111;-68
2024/01/08 09:08:30;;;;;;;28.90;15.20;;;;;;;-10.86;74.72;101171.88;216512;1264;140743;-65
2024/01/08 09:13:35;;;;;;;21.70;8.80;;;;;;;-10.73;74.61;101172.89;217532;1264;141193;-68
2024/01/08 09:18:38;;;;;;;18.50;8.80;;;;;;;-10.68;74.25;101176.58;216096;1264;140823;-65
2024/01/08 09:23:43;;;;;;;14.70;11.00;;;;;;;-10.61;74.21;101177.15;217895;1264;141024;-67
2024/01/08 09:28:46;;;;;;;22.30;12.60;;;;;;;-10.51;74.32;101176.91;217199;1264;141023;-67
2024/01/08 09:33:51;;;;;;;21.10;12.30;;;;;;;-10.41;73.82;101181.48;215880;1263;142032;-66
2024/01/08 09:38:54;;;;;;;27.20;13.00;;;;;;;-10.41;73.94;101186.45;215917;1264;141007;-66
2024/01/08 09:44:03;;;;;;;13.90;7.50;;;;;;;-10.40;73.80;101185.89;216482;1266;142909;-69
2024/01/08 09:49:10;;;;;;;13.50;8.30;;;;;;;-10.37;73.80;101187.10;215829;1267;140834;-69
2024/01/08 09:54:15;;;;;;;17.50;9.80;;;;;;;-10.31;73.89;101186.35;215740;1265;140738;-69
2024/01/08 09:59:20;;;;;;;19.70;10.80;;;;;;;-10.22;73.89;101192.83;215704;1266;140944;-66
2024/01/08 10:04:25;;;;;;;25.30;11.20;;;;;;;-10.16;73.66;101198.05;215925;1267;140946;-65
2024/01/08 10:09:28;;;;;;;26.40;11.80;;;;;;;-10.10;73.77;101202.25;216284;1265;141106;-65
2024/01/08 10:14:32;;;;;;;16.90;9.50;;;;;;;-9.99;73.74;101199.84;215888;1263;140906;-67
2024/01/08 10:19:36;;;;;;;17.30;10.80;;;;;;;-9.91;73.38;101195.54;216290;1264;140932;-64
2024/01/08 10:24:42;;;;;;;20.20;11.00;;;;;;;-9.81;73.37;101201.48;216065;1264;141299;-68
2024/01/08 10:29:46;;;;;;;21.90;11.30;;;;;;;-9.75;73.10;101201.17;215629;1267;220712;-69
2024/01/08 10:34:49;;;;;;;26.00;12.60;;;;;;;-9.68;73.20;101199.14;216068;1263;141697;-65
2024/01/08 10:39:55;;;;;;;23.40;11.40;;;;;;;-9.58;72.89;101208.46;215897;1264;140757;-67
2024/01/08 10:44:59;;;;;;;25.80;11.50;;;;;;;-9.51;72.73;101205.93;216250;1264;140867;-66
2024/01/08 10:50:05;;;;;;;23.40;11.50;;;;;;;-9.41;72.57;101208.00;216824;1264;142176;-66
2024/01/08 10:55:13;;;;;;;12.80;7.80;;;;;;;-9.21;72.90;101207.22;219023;1264;140454;-65
2024/01/08 11:00:17;;;;;;;20.00;11.00;;;;;;;-9.09;72.40;101208.20;219155;1264;142217;-66
2024/01/08 11:05:21;;;;;;;19.60;11.30;;;;;;;-9.00;72.22;101201.92;218872;1264;141009;-65
2024/01/08 11:10:27;;;;;;;23.10;12.60;;;;;;;-8.83;72.21;101201.26;217605;1265;140489;-66
2024/01/08 11:15:31;;;;;;;29.00;13.10;;;;;;;-8.69;72.03;101209.88;218769;1264;140460;-66
2024/01/08 11:20:45;;;;;;;24.20;11.20;;;;;;;-8.63;71.87;101213.55;216067;1264;141080;-66
2024/01/08 11:25:50;;;;;;;16.60;9.40;;;;;;;-8.59;71.72;101211.77;217405;1264;140991;-66
2024/01/08 11:31:21;;;;;;;17.80;10.00;;;;;;;-8.53;71.55;101212.15;216766;1264;140497;-66
2024/01/08 11:36:49;;;;;;;22.80;12.90;;;;;;;-8.48;71.31;101218.48;216015;1267;142210;-68
2024/01/08 11:41:56;;;;;;;25.60;13.30;;;;;;;-8.54;71.00;101214.98;216569;1267;140601;-66
2024/01/08 11:47:01;;;;;;;26.60;12.90;;;;;;;-8.56;70.93;101209.74;215934;1265;140540;-68
2024/01/08 11:52:07;;;;;;;30.20;15.20;;;;;;;-8.56;71.05;101210.23;215615;1265;142256;-68
2024/01/08 11:57:11;;;;;;;26.00;10.20;;;;;;;-8.55;71.06;101209.35;215529;1267;141297;-68
2024/01/08 12:02:17;;;;;;;25.30;12.50;;;;;;;-8.52;71.13;101216.55;216078;1264;140405;-68
2024/01/08 12:07:21;;;;;;;24.90;12.10;;;;;;;-8.48;71.11;101216.74;217224;1267;141174;-64
2024/01/08 12:12:24;;;;;;;26.90;12.20;;;;;;;-8.53;70.82;101222.64;216827;1265;141499;-67
2024/01/08 12:17:29;;;;;;;21.50;11.80;;;;;;;-8.59;70.65;101227.44;215854;1267;141457;-68
2024/01/08 12:22:34;;;;;;;23.30;12.10;;;;;;;-8.68;70.49;101227.38;216216;1264;140494;-65
2024/01/08 12:27:38;;;;;;;19.70;10.50;;;;;;;-8.76;70.51;101221.75;215796;1265;140819;-68
2024/01/08 12:32:42;;;;;;;24.80;12.00;;;;;;;-8.75;70.72;101216.70;215891;1267;140697;-68
2024/01/08 12:37:46;;;;;;;17.70;10.30;;;;;;;-8.70;71.01;101217.34;215830;1267;142223;-69
2024/01/08 12:42:52;;;;;;;25.30;12.40;;;;;;;-8.63;71.06;101221.44;216296;1265;141538;-68
2024/01/08 12:47:56;;;;;;;27.90;13.10;;;;;;;-8.58;71.02;101232.73;219099;1264;142014;-66
2024/01/08 12:53:00;;;;;;;25.60;12.90;;;;;;;-8.53;70.75;101238.54;219011;1264;141059;-67
2024/01/08 12:58:04;;;;;;;24.30;12.80;;;;;;;-8.48;70.72;101240.52;216549;1264;142215;-66
2024/01/08 13:03:08;;;;;;;25.50;13.00;;;;;;;-8.42;70.90;101249.35;216520;1264;142278;-66
2024/01/08 13:08:11;;;;;;;22.80;11.60;;;;;;;-8.41;70.56;101261.59;215812;1265;142277;-65
2024/01/08 13:13:15;;;;;;;19.30;10.70;;;;;;;-8.47;70.58;101266.01;216034;1265;141304;-67
2024/01/08 13:18:18;;;;;;;21.10;12.30;;;;;;;-8.55;70.38;101270.48;216206;1264;141159;-66
2024/01/08 13:23:22;;;;;;;26.20;12.10;;;;;;;-8.58;70.38;101284.11;216297;1264;141012;-67
2024/01/08 13:28:27;;;;;;;23.90;12.20;;;;;;;-8.67;70.25;101294.91;216895;1264;141294;-67
2024/01/08 13:33:32;;;;;;;27.60;12.90;;;;;;;-8.79;70.25;101306.33;215964;1265;140898;-65
2024/01/08 13:38:37;;;;;;;29.70;13.70;;;;;;;-8.82;70.20;101311.31;215849;1265;141041;-67
2024/01/08 13:43:42;;;;;;;26.10;12.50;;;;;;;-8.86;70.48;101318.56;216458;1265;140660;-67
2024/01/08 13:48:45;;;;;;;23.50;12.60;;;;;;;-8.88;70.75;101324.53;216145;1267;140844;-67
2024/01/08 13:53:48;;;;;;;24.00;12.30;;;;;;;-9.01;70.65;101336.67;216188;1267;141730;-68
2024/01/08 13:58:52;;;;;;;28.40;10.90;;;;;;;-9.15;70.78;101341.76;215898;1265;141194;-64
2024/01/08 14:03:55;;;;;;;26.30;12.40;;;;;;;-9.27;70.99;101354.05;215787;1265;140652;-66
2024/01/08 14:08:57;;;;;;;25.10;12.20;;;;;;;-9.33;71.28;101361.17;215935;1265;141685;-69
2024/01/08 14:14:00;;;;;;;22.00;12.60;;;;;;;-9.35;71.44;101372.50;217049;1264;142182;-67
2024/01/08 14:19:03;;;;;;;18.80;10.20;;;;;;;-9.33;71.74;101379.28;215760;1264;140680;-71
2024/01/08 14:24:06;;;;;;;21.70;10.20;;;;;;;-9.34;71.62;101387.06;215702;1265;141036;-69
2024/01/08 14:29:11;;;;;;;25.30;13.80;;;;;;;-9.46;71.42;101381.92;219001;1263;141528;-67
2024/01/08 14:34:16;;;;;;;24.50;12.90;;;;;;;-9.59;71.54;101388.86;216979;1264;140789;-65
2024/01/08 14:39:19;;;;;;;27.70;11.70;;;;;;;-9.65;71.73;101398.41;218935;1264;141459;-64
2024/01/08 14:44:23;;;;;;;18.40;11.60;;;;;;;-9.67;71.83;101403.13;216073;1265;142157;-66
2024/01/08 14:49:26;;;;;;;23.10;13.00;;;;;;;-9.69;72.04;101406.49;218146;1267;141643;-65
2024/01/08 14:54:29;;;;;;;27.50;13.50;;;;;;;-9.71;71.95;101409.69;216295;1263;140880;-66
2024/01/08 14:59:33;;;;;;;21.00;10.60;;;;;;;-9.80;72.02;101411.78;216882;1265;140838;-68
2024/01/08 15:04:37;;;;;;;20.40;10.50;;;;;;;-9.87;72.29;101410.51;216071;1265;141545;-64
2024/01/08 15:09:42;;;;;;;24.80;13.20;;;;;;;-9.93;72.36;101420.77;217133;1265;141521;-66
2024/01/08 15:14:45;;;;;;;21.40;11.10;;;;;;;-10.02;72.10;101424.04;216587;1267;141521;-67
2024/01/08 15:19:49;;;;;;;30.60;15.20;;;;;;;-10.10;72.62;101434.53;216755;1264;140757;-66
2024/01/08 15:24:56;;;;;;;25.40;11.30;;;;;;;-10.17;72.55;101438.61;215988;1264;154495;-67
2024/01/08 15:29:59;;;;;;;19.80;10.80;;;;;;;-10.23;72.42;101440.76;216384;1267;141393;-68
2024/01/08 15:35:05;;;;;;;25.10;12.90;;;;;;;-10.29;72.59;101448.72;216252;1265;140638;-66
2024/01/08 15:40:09;;;;;;;24.70;11.10;;;;;;;-10.35;73.06;101449.30;216283;1265;141989;-63
2024/01/08 15:45:20;;;;;;;37.50;14.40;;;;;;;-10.41;72.77;101452.82;216033;1267;141215;-64
2024/01/08 15:50:32;;;;;;;40.90;19.00;;;;;;;-10.46;73.34;101447.17;215698;1265;141089;-64
2024/01/08 15:55:35;;;;;;;34.40;15.40;;;;;;;-10.46;73.21;101450.27;216586;1265;140934;-63
2024/01/08 16:00:38;;;;;;;36.20;15.50;;;;;;;-10.43;73.19;101452.89;216563;1267;141533;-64
2024/01/08 16:05:41;;;;;;;36.50;16.60;;;;;;;-10.40;73.31;101451.08;218186;1266;141579;-65
2024/01/08 16:10:45;;;;;;;24.40;11.60;;;;;;;-10.36;73.24;101449.13;217931;1267;140815;-63
2024/01/08 16:15:50;;;;;;;20.30;11.40;;;;;;;-10.31;73.17;101452.21;217218;1266;140991;-62
2024/01/08 16:20:54;;;;;;;20.40;11.80;;;;;;;-10.28;72.86;101451.41;217607;1265;246166;-66
2024/01/08 16:25:56;;;;;;;25.90;12.60;;;;;;;-10.29;72.67;101451.95;218091;1265;140410;-63
2024/01/08 16:30:58;;;;;;;24.10;10.90;;;;;;;-10.24;73.08;101464.83;218955;1264;140893;-63
2024/01/08 16:36:01;;;;;;;26.60;12.60;;;;;;;-10.22;72.93;101482.98;219009;1265;141383;-63
2024/01/08 16:41:03;;;;;;;23.10;12.50;;;;;;;-10.25;72.61;101493.75;219010;1265;140947;-66
2024/01/08 16:46:05;;;;;;;20.20;11.90;;;;;;;-10.31;72.79;101504.81;217166;1267;141521;-61
2024/01/08 16:51:10;;;;;;;23.00;9.90;;;;;;;-10.34;72.90;101511.80;218210;1267;141803;-62
2024/01/08 16:56:13;;;;;;;24.80;12.30;;;;;;;-10.43;72.74;101526.95;217184;1264;142994;-62
2024/01/08 17:01:16;;;;;;;22.70;14.50;;;;;;;-10.50;72.96;101534.45;216148;1267;141397;-60
2024/01/08 17:06:20;;;;;;;24.20;12.20;;;;;;;-10.59;72.97;101534.03;216182;1268;140944;-61
2024/01/08 17:11:23;;;;;;;30.30;14.00;;;;;;;-10.63;73.27;101543.81;216437;1264;141377;-60
2024/01/08 17:16:26;;;;;;;31.20;13.70;;;;;;;-10.68;73.38;101559.46;216001;1264;141249;-62
2024/01/08 17:21:28;;;;;;;21.90;10.20;;;;;;;-10.81;72.90;101567.67;216704;1266;141692;-63
2024/01/08 17:26:32;;;;;;;19.30;12.10;;;;;;;-10.92;73.13;101575.44;216830;1268;140668;-62
2024/01/08 17:31:37;;;;;;;31.40;14.00;;;;;;;-10.97;73.30;101571.98;216627;1268;140739;-63
2024/01/08 17:36:40;;;;;;;32.30;12.60;;;;;;;-11.02;73.32;101577.17;216440;1263;140558;-62
2024/01/08 17:41:43;;;;;;;29.60;13.80;;;;;;;-11.12;72.88;101577.67;216932;1268;142614;-63
2024/01/08 17:46:49;;;;;;;27.30;11.60;;;;;;;-11.14;72.90;101576.73;216967;1267;140640;-62
2024/01/08 17:51:52;;;;;;;33.20;14.80;;;;;;;-11.14;73.13;101577.58;217851;1267;141427;-63
2024/01/08 17:56:59;;;;;;;32.40;14.50;;;;;;;-11.11;73.48;101579.73;215910;1269;140838;-63
2024/01/08 18:02:03;;;;;;;24.10;12.00;;;;;;;-11.04;73.39;101585.30;216993;1267;142103;-61
2024/01/08 18:07:06;;;;;;;32.10;14.70;;;;;;;-10.96;73.71;101596.69;216580;1267;140724;-62
2024/01/08 18:12:10;;;;;;;35.60;15.50;;;;;;;-10.95;73.63;101599.76;216412;1264;140881;-60
2024/01/08 18:17:13;;;;;;;29.90;14.70;;;;;;;-10.90;73.19;101603.54;218002;1264;140352;-63
2024/01/08 18:22:16;;;;;;;29.10;14.10;;;;;;;-10.85;73.16;101612.48;218786;1267;141162;-63
2024/01/08 18:27:22;;;;;;;29.00;12.00;;;;;;;-10.85;73.32;101626.88;218904;1264;141220;-65
2024/01/08 18:32:25;;;;;;;23.80;11.80;;;;;;;-10.86;72.76;101639.98;218020;1265;140639;-63
2024/01/08 18:37:28;;;;;;;30.20;11.80;;;;;;;-10.90;72.97;101651.77;217657;1264;140301;-61
2024/01/08 18:42:32;;;;;;;26.00;10.60;;;;;;;-10.95;72.51;101661.40;218341;1264;141374;-62
2024/01/08 18:47:35;;;;;;;25.00;10.50;;;;;;;-11.06;72.37;101670.52;217447;1268;141757;-65
2024/01/08 18:52:41;;;;;;;23.90;12.40;;;;;;;-11.12;72.48;101674.48;217608;1268;140533;-63
2024/01/08 18:57:45;;;;;;;28.40;12.80;;;;;;;-11.25;72.25;101678.69;215653;1269;140821;-66
2024/01/08 19:02:49;;;;;;;26.20;12.20;;;;;;;-11.42;72.31;101685.40;216583;1270;140579;-66
2024/01/08 19:07:52;;;;;;;28.00;14.20;;;;;;;-11.51;72.18;101691.34;215611;1269;140595;-66
2024/01/08 19:12:56;;;;;;;21.00;12.50;;;;;;;-11.57;72.45;101686.70;216423;1267;141042;-66
2024/01/08 19:18:06;;;;;;;23.20;12.90;;;;;;;-11.55;72.51;101685.28;217490;1266;141778;-62
2024/01/08 19:23:09;;;;;;;33.30;12.50;;;;;;;-11.62;72.62;101683.95;216038;1264;140254;-64
2024/01/08 19:28:13;;;;;;;38.10;14.30;;;;;;;-11.64;72.64;101676.99;215909;1268;140744;-65
2024/01/08 19:33:17;;;;;;;40.00;17.10;;;;;;;-11.62;73.06;101674.17;215713;1270;140479;-66
2024/01/08 19:38:25;;;;;;;32.90;16.10;;;;;;;-11.54;73.04;101677.35;215451;1264;140488;-65
2024/01/08 19:43:29;;;;;;;37.30;15.10;;;;;;;-11.49;73.28;101682.70;216432;1269;141572;-62
2024/01/08 19:48:32;;;;;;;39.90;14.70;;;;;;;-11.44;73.12;101679.98;217192;1264;140947;-64
2024/01/08 19:53:36;;;;;;;36.50;16.60;;;;;;;-11.46;72.79;101692.91;216564;1267;141240;-63
2024/01/08 19:58:40;;;;;;;44.30;16.50;;;;;;;-11.46;72.83;101708.16;215861;1269;140415;-62
2024/01/08 20:03:44;;;;;;;38.30;17.00;;;;;;;-11.51;72.71;101722.73;217604;1267;140686;-63
2024/01/08 20:08:52;;;;;;;25.30;13.10;;;;;;;-11.59;72.60;101729.65;216577;1264;141234;-64
2024/01/08 20:13:56;;;;;;;30.00;16.00;;;;;;;-11.68;72.61;101732.35;216512;1265;141376;-64
2024/01/08 20:18:59;;;;;;;28.80;15.20;;;;;;;-11.77;72.73;101737.09;219003;1263;140497;-64
2024/01/08 20:24:02;;;;;;;25.20;13.50;;;;;;;-11.86;72.39;101736.66;217670;1264;140658;-63
2024/01/08 20:29:06;;;;;;;32.60;15.20;;;;;;;-11.93;72.36;101739.59;218838;1267;141589;-64
2024/01/08 20:34:17;;;;;;;26.60;11.90;;;;;;;-11.97;72.50;101747.79;218973;1264;140885;-64
2024/01/08 20:39:23;;;;;;;29.00;14.30;;;;;;;-12.01;72.30;101748.41;218847;1264;142483;-63
2024/01/08 20:44:26;;;;;;;30.30;14.40;;;;;;;-12.00;72.66;101748.70;217046;1264;141348;-62
2024/01/08 20:49:30;;;;;;;34.30;15.30;;;;;;;-11.94;72.45;101748.90;216507;1265;140858;-62
2024/01/08 20:54:34;;;;;;;34.30;16.50;;;;;;;-11.97;72.68;101758.59;216171;1269;140339;-64
2024/01/08 20:59:39;;;;;;;38.00;17.30;;;;;;;-12.04;72.73;101756.35;216238;1264;141454;-64
2024/01/08 21:04:44;;;;;;;31.90;15.00;;;;;;;-12.11;72.93;101753.45;216008;1264;141178;-63
2024/01/08 21:09:48;;;;;;;37.50;16.90;;;;;;;-12.07;73.11;101753.20;216901;1264;141617;-64
2024/01/08 21:14:52;;;;;;;34.30;16.30;;;;;;;-12.00;73.29;101755.92;216521;1264;140629;-62
2024/01/08 21:19:55;;;;;;;43.60;19.30;;;;;;;-11.94;73.52;101759.70;218375;1264;140672;-64
2024/01/08 21:24:58;;;;;;;39.00;17.50;;;;;;;-11.88;72.98;101771.51;217185;1264;141835;-64
2024/01/08 21:30:02;;;;;;;47.00;18.80;;;;;;;-11.94;72.64;101771.17;216654;1267;141073;-65
2024/01/08 21:35:07;;;;;;;41.00;18.90;;;;;;;-11.91;73.17;101780.51;216402;1264;140764;-64
2024/01/08 21:40:11;;;;;;;48.90;20.40;;;;;;;-11.87;73.09;101774.73;216024;1267;140671;-65
2024/01/08 21:45:14;;;;;;;61.70;20.80;;;;;;;-11.90;72.89;101782.19;216551;1264;140494;-64
2024/01/08 21:50:17;;;;;;;41.60;19.30;;;;;;;-11.92;73.12;101780.38;215995;1265;140343;-62
2024/01/08 21:55:21;;;;;;;47.60;16.40;;;;;;;-11.93;73.19;101787.08;216047;1264;140335;-65
2024/01/08 22:00:24;;;;;;;36.70;17.60;;;;;;;-12.03;72.73;101787.35;216812;1263;142710;-63
2024/01/08 22:05:28;;;;;;;47.10;17.70;;;;;;;-12.09;72.83;101785.80;217955;1266;142908;-65
2024/01/08 22:10:32;;;;;;;42.80;18.20;;;;;;;-12.13;72.99;101776.49;216486;1267;140190;-65
2024/01/08 22:15:36;;;;;;;30.50;16.00;;;;;;;-12.16;73.05;101787.36;216020;1264;140429;-63
2024/01/08 22:20:42;;;;;;;38.10;18.00;;;;;;;-12.17;73.13;101789.11;216087;1264;140279;-63